Time;durP1;ratioP1;P1;durP2;ratioP2;P2;SDS_P1;SDS_P2;PMS_P1;PMS_P2;Temp;Humidity;BMP_temperature;BMP_pressure;BME280_temperature;BME280_humidity;BME280_pressure;Samples;Min_cycle;Max_cycle;Signal;HPM_P1;HPM_P2
2024/04/17 00:01:35;;;;;;;4.03;1.30;;;14.30;99.90;;;;;;5416044;26;20323;-64
2024/04/17 00:04:01;;;;;;;3.72;1.50;;;14.20;99.90;;;;;;5406490;26;20019;-64
2024/04/17 00:06:26;;;;;;;3.58;1.30;;;14.10;99.90;;;;;;5406422;26;20011;-64
2024/04/17 00:08:52;;;;;;;2.90;1.30;;;14.20;99.90;;;;;;5401703;26;20004;-64
2024/04/17 00:11:19;;;;;;;3.85;1.50;;;14.20;99.90;;;;;;5419457;26;20015;-65
2024/04/17 00:17:07;;;;;;;3.10;1.52;;;14.10;99.90;;;;;;5408394;26;20120;-64
2024/04/17 00:19:32;;;;;;;1.35;1.17;;;14.20;99.90;;;;;;5408942;26;20054;-64
2024/04/17 00:21:58;;;;;;;2.13;1.10;;;14.10;99.90;;;;;;5401203;26;19996;-64
2024/04/17 00:24:24;;;;;;;2.72;1.73;;;14.10;99.90;;;;;;5417075;26;20464;-64
2024/04/17 00:26:49;;;;;;;1.92;1.73;;;13.90;99.90;;;;;;5412385;26;20014;-64
2024/04/17 00:29:15;;;;;;;2.00;1.55;;;13.90;99.90;;;;;;5404064;26;20001;-64
2024/04/17 00:31:40;;;;;;;2.15;1.77;;;14.00;99.90;;;;;;5407668;26;20119;-65
2024/04/17 00:34:06;;;;;;;5.82;1.80;;;13.80;99.90;;;;;;5413077;26;20012;-64
2024/04/17 00:36:32;;;;;;;2.80;1.67;;;13.80;99.90;;;;;;5417655;26;20077;-64
2024/04/17 00:38:58;;;;;;;2.10;1.60;;;13.80;99.90;;;;;;5416069;26;20461;-64
2024/04/17 00:41:23;;;;;;;1.63;1.52;;;13.70;99.90;;;;;;5416490;26;19996;-63
2024/04/17 00:43:49;;;;;;;4.32;1.73;;;13.70;99.90;;;;;;5412043;26;20020;-64
2024/04/17 00:46:15;;;;;;;3.15;2.13;;;13.70;99.90;;;;;;5417655;26;20014;-64
2024/04/17 00:48:42;;;;;;;3.13;1.65;;;13.80;99.90;;;;;;5413688;26;20115;-64
2024/04/17 00:51:08;;;;;;;2.78;1.58;;;13.70;99.90;;;;;;5415406;26;20008;-65
2024/04/17 00:53:35;;;;;;;3.28;1.42;;;13.70;99.90;;;;;;5403817;26;20020;-64
2024/04/17 00:56:02;;;;;;;2.22;1.38;;;13.90;99.90;;;;;;5416774;26;20022;-63
2024/04/17 00:58:28;;;;;;;2.13;1.27;;;13.80;99.90;;;;;;5413819;26;20137;-64
2024/04/17 01:00:55;;;;;;;3.75;1.80;;;13.90;99.90;;;;;;5414347;26;19999;-63
2024/04/17 01:03:20;;;;;;;1.65;1.30;;;13.90;99.90;;;;;;5410794;26;20345;-64
2024/04/17 01:05:46;;;;;;;3.53;1.52;;;13.80;99.90;;;;;;5407373;26;20019;-64
2024/04/17 01:08:14;;;;;;;3.35;1.20;;;13.80;99.90;;;;;;5403055;26;20485;-64
2024/04/17 01:10:40;;;;;;;3.47;1.63;;;13.80;99.90;;;;;;5415975;26;20014;-63
2024/04/17 01:13:05;;;;;;;3.45;1.17;;;13.80;99.90;;;;;;5391724;26;20410;-63
2024/04/17 01:15:31;;;;;;;3.65;1.13;;;13.80;99.90;;;;;;5395554;26;20025;-64
2024/04/17 01:17:58;;;;;;;1.40;1.30;;;13.80;99.90;;;;;;5406412;26;20011;-63
2024/04/17 01:20:24;;;;;;;2.33;1.63;;;13.80;99.90;;;;;;5400205;26;20012;-64
2024/04/17 01:22:50;;;;;;;3.28;1.75;;;13.80;99.90;;;;;;5394328;26;20011;-63
2024/04/17 01:25:16;;;;;;;1.90;1.40;;;13.80;99.90;;;;;;5416848;26;20287;-64
2024/04/17 01:27:42;;;;;;;1.40;1.10;;;13.60;99.90;;;;;;5383775;26;20334;-64
2024/04/17 01:30:08;;;;;;;3.22;1.75;;;13.60;99.90;;;;;;5408539;26;20378;-64
2024/04/17 01:32:34;;;;;;;4.80;2.25;;;13.70;99.90;;;;;;5404932;26;19995;-64
2024/04/17 01:35:00;;;;;;;5.30;1.88;;;13.70;99.90;;;;;;5408335;26;20007;-64
2024/04/17 01:37:26;;;;;;;3.40;1.50;;;13.80;99.90;;;;;;5415243;26;20000;-64
2024/04/17 01:39:52;;;;;;;2.88;2.00;;;13.70;99.90;;;;;;5414437;26;20337;-63
2024/04/17 01:42:17;;;;;;;5.88;2.13;;;13.70;99.90;;;;;;5413147;26;20010;-64
2024/04/17 01:44:43;;;;;;;4.30;2.55;;;13.70;99.90;;;;;;5395194;26;20008;-63
2024/04/17 01:47:09;;;;;;;3.50;2.90;;;13.70;99.90;;;;;;5423372;26;19999;-64
2024/04/17 01:49:34;;;;;;;3.30;2.10;;;13.60;99.90;;;;;;5415515;26;20015;-64
2024/04/17 01:52:00;;;;;;;4.28;2.38;;;13.70;99.90;;;;;;5412415;26;19999;-64
2024/04/17 01:54:25;;;;;;;5.30;2.22;;;13.60;99.90;;;;;;5412906;26;20033;-64
2024/04/17 01:56:51;;;;;;;3.67;2.60;;;13.50;99.90;;;;;;5407304;26;20006;-64
2024/04/17 01:59:17;;;;;;;2.95;2.17;;;13.60;99.90;;;;;;5407107;26;20019;-64
2024/04/17 02:01:43;;;;;;;2.67;1.70;;;13.70;99.90;;;;;;5407823;26;20004;-64
2024/04/17 02:04:09;;;;;;;3.97;2.42;;;13.70;99.90;;;;;;5406960;26;20015;-64
2024/04/17 02:06:35;;;;;;;5.63;2.28;;;13.60;99.90;;;;;;5403384;26;20350;-64
2024/04/17 02:09:00;;;;;;;4.15;2.47;;;13.60;99.90;;;;;;5413399;26;20003;-64
2024/04/17 02:11:26;;;;;;;3.25;2.22;;;13.70;99.90;;;;;;5413294;26;19996;-64
2024/04/17 02:13:52;;;;;;;7.15;2.40;;;13.70;99.90;;;;;;5414790;26;20007;-64
2024/04/17 02:16:17;;;;;;;2.90;2.10;;;13.60;99.90;;;;;;5404452;26;20011;-64
2024/04/17 02:18:43;;;;;;;5.60;2.17;;;13.60;99.90;;;;;;5407970;26;19995;-64
2024/04/17 02:21:08;;;;;;;4.00;2.10;;;13.60;99.90;;;;;;5402475;26;20011;-64
2024/04/17 02:23:34;;;;;;;5.10;1.98;;;13.50;99.90;;;;;;5413372;26;20018;-64
2024/04/17 02:26:05;;;;;;;3.08;1.67;;;13.50;99.90;;;;;;5411432;26;20022;-64
2024/04/17 02:28:31;;;;;;;5.35;2.50;;;13.60;99.90;;;;;;5409445;26;20015;-64
2024/04/17 02:30:56;;;;;;;4.65;2.35;;;13.60;99.90;;;;;;5392805;26;20000;-64
2024/04/17 02:33:22;;;;;;;5.00;2.33;;;13.70;99.90;;;;;;5406967;26;20010;-64
2024/04/17 02:35:48;;;;;;;4.00;2.50;;;13.60;99.90;;;;;;5409914;26;20023;-64
2024/04/17 02:38:13;;;;;;;6.32;3.17;;;13.60;99.90;;;;;;5407469;26;20000;-64
2024/04/17 02:40:39;;;;;;;4.22;2.47;;;13.60;99.90;;;;;;5411195;26;20015;-64
2024/04/17 02:43:05;;;;;;;2.58;2.30;;;13.60;99.90;;;;;;5396649;26;20107;-64
2024/04/17 02:45:30;;;;;;;2.47;2.28;;;13.70;99.90;;;;;;5403679;26;20014;-64
2024/04/17 02:47:57;;;;;;;3.90;2.42;;;13.60;99.90;;;;;;5382233;26;20004;-64
2024/04/17 02:50:22;;;;;;;4.60;2.53;;;13.50;99.90;;;;;;5407895;26;20011;-64
2024/04/17 02:52:48;;;;;;;3.78;2.53;;;13.60;99.90;;;;;;5401943;26;20073;-64
2024/04/17 02:55:13;;;;;;;3.45;2.80;;;13.60;99.90;;;;;;5409415;26;20002;-64
2024/04/17 02:57:39;;;;;;;3.08;2.55;;;13.60;99.90;;;;;;5404718;26;20079;-64
2024/04/17 03:00:05;;;;;;;5.72;2.90;;;13.50;99.90;;;;;;5413926;26;20004;-65
2024/04/17 03:02:31;;;;;;;2.30;2.10;;;13.60;99.90;;;;;;5414726;26;20045;-65
2024/04/17 03:04:56;;;;;;;2.50;2.25;;;13.60;99.90;;;;;;5410903;26;19995;-64
2024/04/17 03:07:22;;;;;;;3.00;2.00;;;13.60;99.90;;;;;;5407068;26;19996;-64
2024/04/17 03:09:50;;;;;;;2.75;2.20;;;13.60;99.90;;;;;;5407480;26;20089;-64
2024/04/17 03:12:16;;;;;;;2.95;2.60;;;13.60;99.90;;;;;;5406774;26;20011;-64
2024/04/17 03:14:42;;;;;;;4.35;2.35;;;13.50;99.90;;;;;;5411428;26;20141;-64
2024/04/17 03:17:07;;;;;;;4.03;2.22;;;13.60;99.90;;;;;;5411732;26;20003;-64
2024/04/17 03:19:33;;;;;;;2.78;2.50;;;13.50;99.90;;;;;;5405950;26;20434;-64
2024/04/17 03:21:58;;;;;;;3.25;2.40;;;13.40;99.90;;;;;;5414679;26;20000;-64
2024/04/17 03:24:24;;;;;;;5.00;2.90;;;13.40;99.90;;;;;;5404673;26;20004;-64
2024/04/17 03:26:50;;;;;;;4.30;2.47;;;13.40;99.90;;;;;;5412062;26;20514;-64
2024/04/17 03:29:15;;;;;;;3.03;2.35;;;13.30;99.90;;;;;;5409673;26;19999;-63
2024/04/17 03:31:41;;;;;;;10.93;2.88;;;13.20;99.90;;;;;;5404537;26;20015;-64
2024/04/17 03:34:06;;;;;;;3.63;2.15;;;13.40;99.90;;;;;;5407743;26;20068;-64
2024/04/17 03:36:32;;;;;;;4.68;2.42;;;13.40;99.90;;;;;;5414331;26;20000;-64
2024/04/17 03:38:58;;;;;;;4.82;2.38;;;13.50;99.90;;;;;;5410226;26;20074;-64
2024/04/17 03:41:23;;;;;;;4.03;2.72;;;13.40;99.90;;;;;;5415758;26;20014;-64
2024/04/17 03:43:49;;;;;;;2.90;2.35;;;13.40;99.90;;;;;;5413217;26;20034;-64
2024/04/17 03:46:15;;;;;;;4.38;2.10;;;13.40;99.90;;;;;;5399850;26;20346;-64
2024/04/17 03:48:40;;;;;;;4.00;2.47;;;13.20;99.90;;;;;;5405021;26;20003;-64
2024/04/17 03:51:06;;;;;;;4.35;2.38;;;13.30;99.90;;;;;;5415280;26;20413;-64
2024/04/17 03:53:31;;;;;;;4.03;2.60;;;13.30;99.90;;;;;;5402032;26;20004;-64
2024/04/17 03:55:57;;;;;;;2.75;2.35;;;13.20;99.90;;;;;;5405035;26;20004;-64
2024/04/17 03:58:22;;;;;;;3.30;2.30;;;13.30;99.90;;;;;;5409957;26;20004;-64
2024/04/17 04:00:48;;;;;;;6.03;2.30;;;13.20;99.90;;;;;;5415789;26;20003;-64
2024/04/17 04:03:14;;;;;;;4.57;2.05;;;13.20;99.90;;;;;;5408399;26;20000;-64
2024/04/17 04:05:43;;;;;;;5.95;2.72;;;13.10;99.90;;;;;;5400856;26;20004;-64
2024/04/17 04:08:08;;;;;;;4.38;2.38;;;13.20;99.90;;;;;;5392013;26;20007;-64
2024/04/17 04:10:34;;;;;;;5.30;2.60;;;13.20;99.90;;;;;;5407921;26;19996;-64
2024/04/17 04:13:00;;;;;;;3.40;2.10;;;13.10;99.90;;;;;;5395356;26;20041;-64
2024/04/17 04:15:26;;;;;;;2.60;1.92;;;13.10;99.90;;;;;;5397872;26;20011;-64
2024/04/17 04:17:51;;;;;;;4.57;2.75;;;13.20;99.90;;;;;;5412450;26;20033;-64
2024/04/17 04:20:17;;;;;;;3.60;2.30;;;13.10;99.90;;;;;;5402063;26;20015;-64
2024/04/17 04:22:42;;;;;;;3.53;2.20;;;13.20;99.90;;;;;;5407249;26;20004;-64
2024/04/17 04:25:08;;;;;;;3.65;2.22;;;13.20;99.90;;;;;;5381423;26;20019;-64
2024/04/17 04:27:34;;;;;;;4.63;2.50;;;13.20;99.90;;;;;;5405439;26;20000;-63
2024/04/17 04:29:59;;;;;;;3.50;2.13;;;13.10;99.90;;;;;;5413095;26;20003;-63
2024/04/17 04:32:25;;;;;;;6.25;2.45;;;13.10;99.90;;;;;;5405967;26;20018;-64
2024/04/17 04:34:50;;;;;;;4.00;2.22;;;13.00;99.90;;;;;;5403753;26;20381;-64
2024/04/17 04:37:16;;;;;;;7.88;2.45;;;13.00;99.90;;;;;;5400233;26;20001;-64
2024/04/17 04:39:42;;;;;;;4.68;3.03;;;13.10;99.90;;;;;;5406262;26;20437;-64
2024/04/17 04:42:10;;;;;;;5.88;2.75;;;13.10;99.90;;;;;;5413746;26;19995;-64
2024/04/17 04:44:36;;;;;;;3.08;2.47;;;13.10;99.90;;;;;;5405896;26;20007;-64
2024/04/17 04:47:02;;;;;;;3.58;2.28;;;13.10;99.90;;;;;;5401942;26;20008;-64
2024/04/17 04:49:28;;;;;;;6.53;2.42;;;13.10;99.90;;;;;;5405208;26;20000;-64
2024/04/17 04:51:54;;;;;;;3.88;2.88;;;13.00;99.90;;;;;;5415160;26;20023;-64
2024/04/17 04:54:19;;;;;;;4.85;2.47;;;13.00;99.90;;;;;;5416757;26;20003;-64
2024/04/17 04:56:45;;;;;;;5.15;3.00;;;12.90;99.90;;;;;;5413395;26;20006;-64
2024/04/17 04:59:11;;;;;;;4.95;2.42;;;13.10;99.90;;;;;;5399072;26;20461;-63
2024/04/17 05:01:36;;;;;;;3.40;2.65;;;13.10;99.90;;;;;;5405009;26;20023;-63
2024/04/17 05:04:02;;;;;;;4.15;2.72;;;13.10;99.90;;;;;;5403876;26;19996;-63
2024/04/17 05:06:27;;;;;;;5.97;3.42;;;13.00;99.90;;;;;;5388145;26;20327;-63
2024/04/17 05:08:53;;;;;;;5.18;3.22;;;13.00;99.90;;;;;;5405138;26;20394;-63
2024/04/17 05:11:19;;;;;;;4.70;3.42;;;12.90;99.90;;;;;;5393098;26;20011;-64
2024/04/17 05:13:44;;;;;;;5.75;3.28;;;13.00;99.90;;;;;;5408204;26;19999;-63
2024/04/17 05:16:10;;;;;;;3.90;3.10;;;12.90;99.90;;;;;;5414846;26;20334;-63
2024/04/17 05:18:35;;;;;;;4.47;2.97;;;13.00;99.90;;;;;;5412743;26;20018;-63
2024/04/17 05:21:01;;;;;;;3.20;2.78;;;12.90;99.90;;;;;;5407561;26;20134;-63
2024/04/17 05:23:26;;;;;;;6.45;3.60;;;13.00;99.90;;;;;;5404738;26;20440;-63
2024/04/17 05:25:52;;;;;;;7.05;3.50;;;13.10;99.90;;;;;;5410214;26;20081;-63
2024/04/17 05:28:18;;;;;;;6.43;2.65;;;13.10;99.90;;;;;;5411489;26;19995;-63
2024/04/17 05:30:43;;;;;;;3.47;3.17;;;13.00;99.90;;;;;;5406059;26;20015;-64
2024/04/17 05:33:09;;;;;;;5.32;2.88;;;13.10;99.90;;;;;;5402051;26;20019;-65
2024/04/17 05:35:35;;;;;;;5.07;3.35;;;12.90;99.90;;;;;;5399616;26;19996;-65
2024/04/17 05:38:00;;;;;;;5.93;3.00;;;13.10;99.90;;;;;;5407437;26;20212;-65
2024/04/17 05:40:26;;;;;;;4.38;3.03;;;13.10;99.90;;;;;;5414204;26;19996;-64
2024/04/17 05:42:52;;;;;;;6.50;3.45;;;13.10;99.90;;;;;;5415284;26;19992;-65
2024/04/17 05:45:17;;;;;;;4.90;3.30;;;13.10;99.90;;;;;;5398943;26;20008;-65
2024/04/17 05:47:43;;;;;;;4.03;2.80;;;13.00;99.90;;;;;;5409086;26;20414;-65
2024/04/17 05:50:08;;;;;;;6.03;3.42;;;13.10;99.90;;;;;;5402218;26;20027;-66
2024/04/17 05:52:34;;;;;;;6.03;3.05;;;13.00;99.90;;;;;;5406188;26;20004;-65
2024/04/17 05:54:59;;;;;;;8.85;3.25;;;12.80;99.90;;;;;;5409384;26;20014;-65
2024/04/17 05:57:25;;;;;;;11.35;3.97;;;13.00;99.90;;;;;;5413619;26;20398;-65
2024/04/17 05:59:51;;;;;;;5.40;3.33;;;13.00;99.90;;;;;;5406993;26;20055;-65
2024/04/17 06:02:16;;;;;;;6.20;3.33;;;12.90;99.90;;;;;;5415658;26;20011;-66
2024/04/17 06:04:42;;;;;;;5.78;3.28;;;13.10;99.90;;;;;;5414692;26;20151;-65
2024/04/17 06:07:08;;;;;;;12.13;3.88;;;13.10;99.90;;;;;;5390688;26;20125;-65
2024/04/17 06:09:33;;;;;;;4.35;3.00;;;13.00;99.90;;;;;;5409518;26;20000;-65
2024/04/17 06:11:59;;;;;;;5.60;3.20;;;13.10;99.90;;;;;;5410172;26;20094;-65
2024/04/17 06:14:25;;;;;;;4.07;2.50;;;13.00;99.90;;;;;;5425445;26;19999;-66
2024/04/17 06:16:50;;;;;;;7.00;2.65;;;13.10;99.90;;;;;;5418837;26;20340;-65
2024/04/17 06:19:16;;;;;;;5.10;1.67;;;13.20;99.90;;;;;;5408693;26;20087;-66
2024/04/17 06:21:41;;;;;;;3.42;1.80;;;13.00;99.90;;;;;;5402159;26;20417;-66
2024/04/17 06:24:07;;;;;;;3.38;1.65;;;13.10;99.90;;;;;;5407022;26;20007;-65
2024/04/17 06:26:33;;;;;;;2.97;1.95;;;13.10;99.90;;;;;;5415251;26;20018;-66
2024/04/17 06:28:58;;;;;;;3.80;1.67;;;13.20;99.90;;;;;;5406125;26;20019;-66
2024/04/17 06:31:25;;;;;;;4.50;1.63;;;13.20;99.90;;;;;;5403651;26;20011;-66
2024/04/17 06:33:51;;;;;;;5.97;2.00;;;13.00;99.90;;;;;;5414545;26;20006;-66
2024/04/17 06:36:17;;;;;;;5.38;1.77;;;13.10;99.90;;;;;;5413280;26;19999;-60
2024/04/17 06:38:44;;;;;;;3.63;1.70;;;13.10;99.90;;;;;;5403758;26;20495;-58
2024/04/17 06:41:09;;;;;;;7.35;2.05;;;13.10;99.90;;;;;;5395543;26;20000;-59
2024/04/17 06:43:35;;;;;;;5.07;2.25;;;12.90;99.90;;;;;;5406654;26;20331;-60
2024/04/17 06:46:01;;;;;;;8.43;2.00;;;12.80;99.90;;;;;;5403937;26;20010;-59
2024/04/17 06:48:26;;;;;;;6.75;1.75;;;12.80;99.90;;;;;;5411204;26;20003;-58
2024/04/17 06:50:52;;;;;;;7.47;1.98;;;12.90;99.90;;;;;;5412814;26;20010;-58
2024/04/17 06:53:17;;;;;;;5.30;2.00;;;12.90;99.90;;;;;;5420994;26;20014;-59
2024/04/17 06:55:43;;;;;;;5.60;1.83;;;13.10;99.90;;;;;;5412461;26;20037;-58
2024/04/17 06:58:09;;;;;;;6.22;2.10;;;13.10;99.90;;;;;;5396597;26;20072;-59
2024/04/17 07:00:36;;;;;;;6.28;2.13;;;13.00;99.90;;;;;;5407470;26;19999;-60
2024/04/17 07:03:02;;;;;;;5.35;2.40;;;13.20;99.90;;;;;;5405380;26;20008;-59
2024/04/17 07:05:28;;;;;;;7.10;2.60;;;13.30;99.90;;;;;;5409764;26;20331;-60
2024/04/17 07:07:54;;;;;;;5.47;2.15;;;13.30;99.90;;;;;;5400859;26;20028;-59
2024/04/17 07:10:22;;;;;;;8.65;2.78;;;13.30;99.90;;;;;;5418478;26;20043;-60
2024/04/17 07:16:22;;;;;;;4.25;2.10;;;13.30;99.90;;;;;;5388776;26;20007;-59
2024/04/17 07:18:49;;;;;;;5.30;2.13;;;13.20;99.90;;;;;;5426227;26;19994;-60
2024/04/17 07:21:14;;;;;;;2.72;2.28;;;13.30;99.90;;;;;;5413027;26;20394;-60
2024/04/17 07:23:40;;;;;;;4.50;1.98;;;13.30;99.90;;;;;;5417916;26;19999;-59
2024/04/17 07:26:05;;;;;;;3.85;2.17;;;13.40;99.90;;;;;;5416768;26;19996;-60
2024/04/17 07:28:31;;;;;;;5.13;2.30;;;13.40;99.90;;;;;;5412973;26;20014;-60
2024/04/17 07:30:57;;;;;;;3.72;2.30;;;13.40;99.90;;;;;;5417969;26;20011;-60
2024/04/17 07:33:22;;;;;;;3.58;2.55;;;13.50;99.90;;;;;;5414405;26;20019;-60
2024/04/17 07:35:58;;;;;;;6.55;2.55;;;13.60;99.90;;;;;;5403409;26;20195;-60
2024/04/17 07:38:24;;;;;;;8.77;2.70;;;13.60;99.90;;;;;;5416906;26;19999;-60
2024/04/17 07:41:02;;;;;;;5.90;2.97;;;13.70;99.90;;;;;;5413308;26;20007;-60
2024/04/17 07:43:31;;;;;;;3.33;2.78;;;13.70;99.90;;;;;;5409593;26;20015;-60
2024/04/17 07:45:58;;;;;;;4.57;3.05;;;13.60;99.90;;;;;;5395234;26;20181;-62
2024/04/17 07:48:24;;;;;;;3.88;2.85;;;13.80;99.90;;;;;;5399153;26;20012;-61
2024/04/17 07:50:49;;;;;;;4.85;2.88;;;13.80;99.90;;;;;;5407714;26;20003;-61
2024/04/17 07:53:15;;;;;;;6.15;3.08;;;14.00;99.90;;;;;;5401613;26;20064;-60
2024/04/17 07:55:41;;;;;;;4.50;3.30;;;14.10;99.90;;;;;;5410063;26;20004;-60
2024/04/17 07:58:07;;;;;;;5.88;2.92;;;14.10;99.90;;;;;;5395590;26;20014;-63
2024/04/17 08:00:32;;;;;;;2.88;2.03;;;14.10;99.90;;;;;;5413984;26;20086;-60
2024/04/17 08:02:58;;;;;;;3.95;2.67;;;14.10;99.90;;;;;;5396118;26;20004;-53
2024/04/17 08:05:24;;;;;;;3.95;2.55;;;14.10;99.90;;;;;;5413377;26;20451;-52
2024/04/17 08:07:50;;;;;;;3.85;2.50;;;14.10;99.90;;;;;;5413208;26;20010;-63
2024/04/17 08:10:18;;;;;;;6.82;2.67;;;14.20;99.90;;;;;;5399573;26;20000;-62
2024/04/17 08:12:44;;;;;;;9.05;3.20;;;14.30;99.90;;;;;;5401348;26;20411;-62
2024/04/17 08:15:12;;;;;;;4.63;3.15;;;14.20;99.90;;;;;;5407341;26;19999;-72
2024/04/17 08:17:39;;;;;;;6.78;2.50;;;14.30;99.90;;;;;;5408166;26;20148;-72
2024/04/17 08:20:05;;;;;;;4.65;2.40;;;14.40;99.90;;;;;;5409340;26;19995;-68
2024/04/17 08:22:30;;;;;;;6.15;3.15;;;14.50;99.90;;;;;;5415027;26;20046;-69
2024/04/17 08:24:56;;;;;;;8.20;2.90;;;14.50;99.90;;;;;;5411715;26;20039;-75
2024/04/17 08:27:22;;;;;;;4.18;2.28;;;14.50;99.90;;;;;;5411141;26;20082;-73
2024/04/17 08:29:47;;;;;;;3.42;2.17;;;14.70;99.90;;;;;;5401404;26;20007;-66
2024/04/17 08:32:13;;;;;;;4.43;2.80;;;14.70;99.90;;;;;;5412767;26;20000;-64
2024/04/17 08:34:44;;;;;;;3.50;2.45;;;14.80;99.90;;;;;;5411652;26;19995;-74
2024/04/17 08:37:11;;;;;;;4.45;2.53;;;14.70;99.90;;;;;;5405955;26;20003;-75
2024/04/17 08:39:36;;;;;;;3.75;2.50;;;14.80;99.90;;;;;;5417199;26;20072;-74
2024/04/17 08:42:06;;;;;;;5.18;2.10;;;14.80;99.90;;;;;;5405348;26;20009;-60
2024/04/17 08:44:35;;;;;;;5.30;2.55;;;14.90;99.90;;;;;;5398397;26;20396;-57
2024/04/17 08:47:03;;;;;;;6.45;2.83;;;15.00;99.90;;;;;;5398442;26;20021;-59
2024/04/17 08:49:33;;;;;;;6.55;1.98;;;15.10;99.90;;;;;;5397394;26;20473;-55
2024/04/17 08:52:02;;;;;;;3.53;2.05;;;15.10;99.90;;;;;;5400497;26;20027;-55
2024/04/17 08:54:32;;;;;;;4.97;2.90;;;15.20;99.90;;;;;;5408310;26;19999;-49
2024/04/17 08:56:58;;;;;;;4.82;2.28;;;15.20;99.90;;;;;;5410954;26;20394;-57
2024/04/17 08:59:25;;;;;;;4.18;2.65;;;15.30;99.90;;;;;;5396885;26;20044;-60
2024/04/17 09:01:52;;;;;;;4.75;2.30;;;15.30;99.90;;;;;;5399124;26;20346;-58
2024/04/17 09:04:20;;;;;;;4.47;2.80;;;15.30;99.90;;;;;;5403825;26;19995;-60
2024/04/17 09:06:47;;;;;;;7.20;2.85;;;15.40;99.90;;;;;;5406424;26;20449;-56
2024/04/17 09:09:18;;;;;;;4.57;2.78;;;15.50;99.90;;;;;;5406115;26;19999;-60
2024/04/17 09:11:45;;;;;;;6.95;2.92;;;15.60;99.90;;;;;;5416016;26;20460;-53
2024/04/17 09:14:10;;;;;;;4.05;2.53;;;15.50;99.90;;;;;;5411980;26;20003;-58
2024/04/17 09:16:36;;;;;;;5.15;2.78;;;15.50;99.90;;;;;;5410807;26;19999;-59
2024/04/17 09:19:02;;;;;;;7.13;2.60;;;15.60;99.90;;;;;;5409128;26;20010;-57
2024/04/17 09:21:29;;;;;;;7.55;2.63;;;15.70;99.90;;;;;;5405021;26;20008;-63
2024/04/17 09:23:56;;;;;;;3.95;3.10;;;15.70;99.90;;;;;;5404911;26;20014;-68
2024/04/17 09:26:22;;;;;;;4.30;2.72;;;15.80;99.90;;;;;;5411532;26;20031;-53
2024/04/17 09:28:49;;;;;;;4.72;2.40;;;15.90;99.90;;;;;;5387997;26;20004;-63
2024/04/17 09:31:15;;;;;;;4.13;2.85;;;15.90;99.90;;;;;;5395064;26;20000;-62
2024/04/17 09:33:47;;;;;;;7.20;2.60;;;15.90;99.90;;;;;;5391202;26;20000;-63
2024/04/17 09:36:13;;;;;;;5.32;3.17;;;16.10;99.90;;;;;;5411049;26;19999;-64
2024/04/17 09:38:42;;;;;;;5.57;3.08;;;16.00;99.90;;;;;;5410722;26;20011;-71
2024/04/17 09:41:09;;;;;;;4.13;3.15;;;16.10;99.90;;;;;;5416094;26;20395;-62
2024/04/17 09:43:42;;;;;;;5.43;2.95;;;16.10;99.90;;;;;;5414711;26;20132;-63
2024/04/17 09:46:08;;;;;;;5.43;3.15;;;16.20;99.90;;;;;;5413176;26;20070;-61
2024/04/17 09:48:41;;;;;;;5.88;2.50;;;16.20;99.90;;;;;;5398061;26;20053;-60
2024/04/17 09:51:08;;;;;;;4.65;2.28;;;16.20;99.90;;;;;;5410973;26;20000;-57
2024/04/17 09:53:36;;;;;;;4.00;2.10;;;16.20;99.90;;;;;;5409910;26;20007;-56
2024/04/17 09:56:04;;;;;;;8.88;2.47;;;16.30;99.90;;;;;;5409685;26;20003;-69
2024/04/17 09:58:34;;;;;;;7.20;2.65;;;16.40;99.90;;;;;;5407889;26;20470;-68
2024/04/17 10:01:05;;;;;;;4.18;2.10;;;16.50;99.90;;;;;;5410442;26;20000;-61
2024/04/17 10:03:32;;;;;;;4.97;2.15;;;16.50;99.90;;;;;;5396945;26;20000;-53
2024/04/17 10:06:01;;;;;;;4.75;2.03;;;16.50;99.90;;;;;;5411956;26;20018;-52
2024/04/17 10:08:35;;;;;;;4.30;2.05;;;16.60;99.90;;;;;;5414127;26;20080;-54
2024/04/17 10:11:02;;;;;;;4.60;1.70;;;16.70;99.90;;;;;;5390530;26;20000;-57
2024/04/17 10:13:28;;;;;;;5.60;1.92;;;16.80;99.90;;;;;;5413863;26;19997;-61
2024/04/17 10:15:54;;;;;;;5.43;1.70;;;17.00;99.90;;;;;;5410293;26;20382;-61
2024/04/17 10:18:21;;;;;;;3.92;1.20;;;17.00;99.90;;;;;;5408421;26;20007;-61
2024/04/17 10:20:47;;;;;;;2.13;1.83;;;17.00;99.90;;;;;;5414877;26;20464;-49
2024/04/17 10:23:15;;;;;;;6.15;1.58;;;17.10;99.90;;;;;;5410120;26;20007;-64
2024/04/17 10:25:54;;;;;;;2.38;1.27;;;17.30;99.90;;;;;;5398253;26;20036;-62
2024/04/17 10:28:20;;;;;;;5.32;1.27;;;17.30;99.90;;;;;;5410803;26;20007;-59
2024/04/17 10:30:48;;;;;;;5.53;1.38;;;17.40;99.90;;;;;;5404233;26;19996;-74
2024/04/17 10:33:27;;;;;;;3.75;1.27;;;17.50;99.90;;;;;;5414026;26;20176;-63
2024/04/17 10:35:54;;;;;;;2.88;1.30;;;17.40;99.90;;;;;;5410844;26;20341;-62
2024/04/17 10:38:26;;;;;;;2.50;1.75;;;17.50;99.90;;;;;;5396538;26;20039;-65
2024/04/17 10:40:56;;;;;;;3.33;1.10;;;17.50;99.90;;;;;;5411008;26;20053;-69
2024/04/17 10:43:25;;;;;;;2.40;0.93;;;17.50;99.90;;;;;;5411660;26;20365;-58
2024/04/17 10:45:57;;;;;;;2.70;1.05;;;17.50;99.90;;;;;;5391166;26;20018;-65
2024/04/17 10:48:24;;;;;;;3.78;1.08;;;17.50;99.90;;;;;;5393736;26;20006;-65
2024/04/17 10:50:50;;;;;;;2.30;0.93;;;17.60;99.90;;;;;;5415236;26;20005;-59
2024/04/17 10:53:17;;;;;;;4.15;0.88;;;17.80;99.90;;;;;;5401083;26;20000;-68
2024/04/17 10:55:43;;;;;;;108.65;15.65;;;17.70;99.90;;;;;;5390521;26;20009;-64
2024/04/17 10:58:12;;;;;;;3.45;1.27;;;17.80;99.90;;;;;;5397050;26;20039;-66
2024/04/17 11:00:38;;;;;;;2.13;1.15;;;17.80;99.90;;;;;;5414600;26;20365;-67
2024/04/17 11:03:04;;;;;;;5.00;0.93;;;17.80;99.90;;;;;;5413083;26;20072;-60
2024/04/17 11:05:30;;;;;;;2.92;0.80;;;18.00;99.90;;;;;;5389525;26;20454;-67
2024/04/17 11:07:57;;;;;;;2.08;0.88;;;18.00;99.90;;;;;;5409011;26;20015;-67
2024/04/17 11:10:23;;;;;;;1.85;0.73;;;18.10;99.90;;;;;;5408416;26;20072;-49
2024/04/17 11:12:48;;;;;;;1.05;0.57;;;18.10;99.90;;;;;;5383259;26;20008;-49
2024/04/17 11:15:14;;;;;;;2.35;0.60;;;18.20;99.90;;;;;;5411467;26;20003;-61
2024/04/17 11:17:40;;;;;;;2.75;0.50;;;18.20;99.90;;;;;;5390352;26;20015;-61
2024/04/17 11:20:08;;;;;;;1.67;0.65;;;18.40;99.90;;;;;;5412317;26;19995;-60
2024/04/17 11:22:34;;;;;;;2.75;0.90;;;18.60;99.90;;;;;;5403478;26;20015;-61
2024/04/17 11:25:02;;;;;;;1.77;0.50;;;18.50;99.90;;;;;;5410080;26;20051;-61
2024/04/17 11:27:28;;;;;;;1.95;0.45;;;18.70;99.90;;;;;;5414720;26;20027;-60
2024/04/17 11:29:53;;;;;;;1.42;0.70;;;18.70;99.90;;;;;;5407733;26;20010;-59
2024/04/17 11:32:19;;;;;;;1.27;0.68;;;18.90;99.90;;;;;;5414885;26;20019;-59
2024/04/17 11:34:46;;;;;;;3.00;0.93;;;;;;;;;;5413642;26;20068;-60
2024/04/17 11:37:12;;;;;;;3.38;0.75;;;;;;;;;;5414102;26;20007;-60
2024/04/17 11:39:39;;;;;;;3.47;0.73;;;;;;;;;;5403564;26;20011;-61
2024/04/17 11:42:08;;;;;;;2.60;1.10;;;;;;;;;;5414568;26;20018;-61
2024/04/17 11:44:38;;;;;;;2.20;0.80;;;;;;;;;;5403977;26;20000;-60
2024/04/17 11:47:08;;;;;;;0.70;0.60;;;;;;;;;;5407758;26;20019;-61
2024/04/17 11:49:34;;;;;;;3.30;0.70;;;;;;;;;;5416928;26;20314;-61
2024/04/17 11:52:01;;;;;;;3.53;0.70;;;;;;;;;;5417778;26;20011;-61
2024/04/17 11:54:27;;;;;;;1.10;0.50;;;;;;;;;;5410671;26;20009;-61
2024/04/17 11:56:53;;;;;;;1.70;0.80;;;;;;;;;;5404931;26;20010;-61
2024/04/17 11:59:20;;;;;;;3.13;0.88;;;;;;;;;;5404763;26;20005;-61
2024/04/17 12:01:46;;;;;;;1.85;0.70;;;;;;;;;;5393963;26;20085;-61
2024/04/17 12:04:12;;;;;;;1.77;0.70;;;;;;;;;;5396323;26;20008;-61
2024/04/17 12:06:38;;;;;;;0.57;0.52;;;;;;;;;;5417790;26;20083;-61
2024/04/17 12:09:05;;;;;;;3.65;0.40;;;;;;;;;;5413978;26;20160;-61
2024/04/17 12:11:31;;;;;;;1.88;0.70;;;;;;;;;;5401520;26;20015;-61
2024/04/17 12:13:57;;;;;;;0.60;0.60;;;;;;;;;;5398931;26;20004;-66
2024/04/17 12:16:23;;;;;;;1.33;0.55;;;;;;;;;;5412254;26;20122;-62
2024/04/17 12:18:49;;;;;;;1.75;0.40;;;19.10;99.90;;;;;;5410676;26;20018;-62
2024/04/17 12:21:15;;;;;;;1.58;0.47;;;;;;;;;;5415171;26;20003;-64
2024/04/17 12:23:43;;;;;;;0.95;0.75;;;;;;;;;;5415085;26;20007;-63
2024/04/17 12:28:54;;;;;;;4.03;0.63;;;25.00;99.90;;;;;;5403250;26;20011;-62
2024/04/17 12:31:19;;;;;;;1.92;0.63;;;22.90;99.90;;;;;;5413165;26;19999;-62
2024/04/17 12:33:45;;;;;;;1.73;0.30;;;;;;;;;;5411282;26;19999;-58
2024/04/17 12:36:11;;;;;;;0.60;0.52;;;24.90;99.90;;;;;;5415418;26;20011;-54
2024/04/17 12:38:37;;;;;;;1.83;0.57;;;25.90;99.90;;;;;;5413131;26;20303;-54
2024/04/17 12:41:02;;;;;;;0.73;0.50;;;25.00;99.90;;;;;;5414277;26;19996;-52
2024/04/17 12:43:28;;;;;;;0.85;0.63;;;24.90;99.90;;;;;;5410381;26;20012;-52
2024/04/17 12:45:54;;;;;;;1.35;0.60;;;24.60;99.90;;;;;;5414737;26;20007;-50
2024/04/17 12:48:19;;;;;;;0.43;0.43;;;24.70;99.90;;;;;;5411425;26;20004;-56
2024/04/17 12:50:48;;;;;;;2.53;0.50;;;23.80;99.90;;;;;;5410719;26;20450;-62
2024/04/17 12:53:15;;;;;;;3.25;0.60;;;23.30;99.90;;;;;;5415431;26;20003;-60
2024/04/17 12:55:41;;;;;;;1.17;0.63;;;23.80;99.90;;;;;;5407059;26;20071;-60
2024/04/17 12:58:07;;;;;;;1.95;0.40;;;24.00;99.90;;;;;;5413365;26;20008;-64